Time;durP1;ratioP1;P1;durP2;ratioP2;P2;SDS_P1;SDS_P2;PMS_P1;PMS_P2;Temp;Humidity;BMP_temperature;BMP_pressure;BME280_temperature;BME280_humidity;BME280_pressure;Samples;Min_cycle;Max_cycle;Signal;HPM_P1;HPM_P2
2022/12/19 00:03:28;;;;;;;43.95;21.10;;;;;;;;;;8279848;28;20096;-76
2022/12/19 00:07:28;;;;;;;45.65;21.02;;;;;;;;;;8272260;28;20764;-76
2022/12/19 00:11:29;;;;;;;39.22;19.50;;;;;;;;;;8269635;28;20160;-76
2022/12/19 00:15:29;;;;;;;52.63;23.73;;;;;;;;;;8270787;28;20053;-76
2022/12/19 00:19:29;;;;;;;45.40;22.27;;;;;;;;;;8270161;28;20026;-76
2022/12/19 00:23:30;;;;;;;45.85;21.77;;;;;;;;;;8271576;28;20971;-76
2022/12/19 00:27:34;;;;;;;48.70;24.52;;;;;;;;;;8272710;28;20026;-76
2022/12/19 00:31:35;;;;;;;49.63;23.60;;;;;;;;;;8270757;28;20061;-77
2022/12/19 00:35:35;;;;;;;46.25;21.90;;;;;;;;;;8270794;28;20319;-76
2022/12/19 00:39:35;;;;;;;53.15;24.17;;;;;;;;;;8270782;28;20057;-75
2022/12/19 00:43:36;;;;;;;44.17;20.90;;;;;;;;;;8271124;28;20288;-75
2022/12/19 00:47:36;;;;;;;47.83;22.77;;;;;;;;;;8277808;28;20698;-76
2022/12/19 00:51:36;;;;;;;50.63;23.58;;;;;;;;;;8272455;28;20022;-76
2022/12/19 00:55:37;;;;;;;40.83;20.42;;;;;;;;;;8274921;28;20028;-76
2022/12/19 00:59:38;;;;;;;43.53;21.20;;;;;;;;;;8276888;28;20092;-76
2022/12/19 01:03:38;;;;;;;38.08;20.98;;;;;;;;;;8276853;28;20037;-76
2022/12/19 01:07:38;;;;;;;47.72;22.77;;;;;;;;;;8276276;28;20021;-77
2022/12/19 01:16:01;;;;;;;42.97;20.50;;;;;;;;;;8274723;28;20041;-77
2022/12/19 01:20:01;;;;;;;;;;;;;;;;;;8289968;28;20050;-76
2022/12/19 01:24:02;;;;;;;40.40;20.05;;;;;;;;;;8275516;28;20015;-76
2022/12/19 01:28:06;;;;;;;40.17;19.73;;;;;;;;;;8275433;28;20461;-78
2022/12/19 01:32:06;;;;;;;44.42;21.40;;;;;;;;;;8273845;28;20418;-76
2022/12/19 01:36:07;;;;;;;42.38;21.13;;;;;;;;;;8272657;28;20144;-77
2022/12/19 01:40:08;;;;;;;42.00;21.77;;;;;;;;;;8275920;28;20284;-77
2022/12/19 01:44:08;;;;;;;49.97;22.92;;;;;;;;;;8281822;28;20033;-76
2022/12/19 01:48:08;;;;;;;44.28;21.77;;;;;;;;;;8274270;28;20080;-76
2022/12/19 01:52:08;;;;;;;43.60;21.33;;;;;;;;;;8273265;28;20701;-76
2022/12/19 01:56:09;;;;;;;43.33;21.55;;;;;;;;;;8271863;28;20497;-76
2022/12/19 02:00:10;;;;;;;52.53;23.63;;;;;;;;;;8290237;28;20276;-77
2022/12/19 02:04:11;;;;;;;48.65;22.40;;;;;;;;;;8279954;28;20029;-76
2022/12/19 02:08:11;;;;;;;39.88;20.98;;;;;;;;;;8272288;28;20038;-76
2022/12/19 02:12:12;;;;;;;49.42;22.75;;;;;;;;;;8270782;28;20358;-76
2022/12/19 02:16:15;;;;;;;47.00;21.90;;;;;;;;;;8271248;28;20045;-76
2022/12/19 02:20:34;;;;;;;51.53;22.88;;;;;;;;;;8272775;28;20601;-76
2022/12/19 02:24:43;;;;;;;55.35;26.13;;;;;;;;;;8272973;28;20018;-76
2022/12/19 02:29:02;;;;;;;40.42;21.05;;;;;;;;;;8273990;28;20948;-76
2022/12/19 02:33:04;;;;;;;45.78;21.92;;;;;;;;;;8273686;28;20033;-77
2022/12/19 02:37:09;;;;;;;51.00;22.80;;;;;;;;;;8273435;28;20171;-77
2022/12/19 02:41:19;;;;;;;44.85;22.08;;;;;;;;;;8271314;28;20109;-76
2022/12/19 02:45:21;;;;;;;44.33;21.50;;;;;;;;;;8270717;28;20045;-76
2022/12/19 02:49:21;;;;;;;43.85;21.25;;;;;;;;;;8271808;28;20025;-76
2022/12/19 02:53:22;;;;;;;42.80;22.08;;;;;;;;;;8279628;28;20033;-76
2022/12/19 02:57:36;;;;;;;46.15;21.15;;;;;;;;;;8270605;28;20529;-76
2022/12/19 03:01:44;;;;;;;41.67;21.15;;;;;;;;;;8278230;28;20148;-76
2022/12/19 03:05:52;;;;;;;49.90;22.50;;;;;;;;;;8271443;28;20026;-77
2022/12/19 03:10:01;;;;;;;43.88;21.25;;;;;;;;;;8270557;28;20037;-76
2022/12/19 03:14:04;;;;;;;38.72;18.83;;;;;;;;;;8271871;28;20018;-76
2022/12/19 03:18:05;;;;;;;46.30;21.58;;;;;;;;;;8270303;28;20037;-76
2022/12/19 03:22:05;;;;;;;51.90;22.60;;;;;;;;;;8271524;28;20033;-76
2022/12/19 03:26:08;;;;;;;39.65;19.70;;;;;;;;;;8269455;28;20069;-76
2022/12/19 03:30:10;;;;;;;37.90;19.08;;;;;;;;;;8273251;28;20026;-77
2022/12/19 03:34:14;;;;;;;40.47;20.13;;;;;;;;;;8271139;28;20061;-76
2022/12/19 03:38:17;;;;;;;39.80;20.40;;;;;;;;;;8268991;28;20025;-76
2022/12/19 03:46:40;;;;;;;35.00;18.92;;;;;;;;;;8269265;28;20556;-76
2022/12/19 03:50:45;;;;;;;43.13;22.90;;;;;;;;;;8278115;28;20025;-76
2022/12/19 03:54:53;;;;;;;42.22;20.85;;;;;;;;;;8267078;28;20546;-76
2022/12/19 03:58:57;;;;;;;42.83;21.33;;;;;;;;;;8267813;28;20022;-77
2022/12/19 04:02:57;;;;;;;43.67;22.77;;;;;;;;;;8266056;28;20154;-75
2022/12/19 04:06:58;;;;;;;44.80;22.70;;;;;;;;;;8262747;28;20041;-75
2022/12/19 04:11:09;;;;;;;48.03;24.55;;;;;;;;;;8263476;28;20450;-74
2022/12/19 04:15:10;;;;;;;44.15;23.08;;;;;;;;;;8263866;28;20402;-75
2022/12/19 04:19:14;;;;;;;45.80;21.85;;;;;;;;;;8263124;28;20076;-75
2022/12/19 04:23:17;;;;;;;46.30;24.92;;;;;;;;;;8272451;28;20444;-74
2022/12/19 04:27:19;;;;;;;47.73;23.30;;;;;;;;;;8261171;28;20049;-74
2022/12/19 04:31:20;;;;;;;39.90;20.88;;;;;;;;;;8267553;28;20037;-75
2022/12/19 04:35:20;;;;;;;46.70;22.60;;;;;;;;;;8268539;28;20640;-75
2022/12/19 04:39:20;;;;;;;56.15;28.17;;;;;;;;;;8271215;28;20029;-74
2022/12/19 04:43:20;;;;;;;50.05;25.35;;;;;;;;;;8269930;28;20034;-74
2022/12/19 04:47:21;;;;;;;58.58;26.17;;;;;;;;;;8268178;28;20072;-74
2022/12/19 04:51:21;;;;;;;45.88;23.25;;;;;;;;;;8270251;28;20033;-74
2022/12/19 04:55:21;;;;;;;45.00;23.98;;;;;;;;;;8269187;28;20025;-75
2022/12/19 04:59:21;;;;;;;49.55;23.38;;;;;;;;;;8267972;28;20273;-75
2022/12/19 05:03:22;;;;;;;41.95;21.85;;;;;;;;;;8268060;28;20044;-74
2022/12/19 05:07:22;;;;;;;40.97;21.00;;;;;;;;;;8266223;28;20032;-75
2022/12/19 05:11:23;;;;;;;45.30;22.93;;;;;;;;;;8270611;28;20474;-75
2022/12/19 05:15:23;;;;;;;53.75;25.23;;;;;;;;;;8265291;28;20281;-75
2022/12/19 05:19:23;;;;;;;47.70;24.17;;;;;;;;;;8269502;28;20225;-76
2022/12/19 05:23:23;;;;;;;44.67;21.90;;;;;;;;;;8266006;28;21069;-75
2022/12/19 05:27:24;;;;;;;45.08;22.80;;;;;;;;;;8268134;28;20735;-74
2022/12/19 05:31:24;;;;;;;48.35;23.27;;;;;;;;;;8268175;28;20041;-74
2022/12/19 05:35:24;;;;;;;55.92;25.02;;;;;;;;;;8266594;28;20295;-75
2022/12/19 05:39:24;;;;;;;48.77;24.83;;;;;;;;;;8282648;28;20273;-75
2022/12/19 05:43:25;;;;;;;56.60;27.27;;;;;;;;;;8268716;28;20276;-74
2022/12/19 05:47:25;;;;;;;54.22;25.38;;;;;;;;;;8264430;28;20136;-75
2022/12/19 05:51:25;;;;;;;52.95;23.88;;;;;;;;;;8269074;28;20283;-74
2022/12/19 05:55:25;;;;;;;42.10;22.83;;;;;;;;;;8268216;28;20284;-74
2022/12/19 05:59:26;;;;;;;46.30;24.73;;;;;;;;;;8269956;28;20312;-74
2022/12/19 06:03:26;;;;;;;42.95;22.73;;;;;;;;;;8268120;28;20285;-74
2022/12/19 06:07:26;;;;;;;45.85;20.88;;;;;;;;;;8266426;28;20172;-74
2022/12/19 06:11:26;;;;;;;40.25;20.17;;;;;;;;;;8268609;28;20116;-74
2022/12/19 06:15:27;;;;;;;41.75;21.52;;;;;;;;;;8266545;28;20764;-74
2022/12/19 06:19:28;;;;;;;44.20;21.30;;;;;;;;;;8268644;28;20040;-75
2022/12/19 06:23:30;;;;;;;34.10;19.30;;;;;;;;;;8267367;28;20021;-76
2022/12/19 06:27:30;;;;;;;39.20;21.20;;;;;;;;;;8268599;28;20025;-74
2022/12/19 06:31:30;;;;;;;34.85;19.17;;;;;;;;;;8266171;28;20132;-74
2022/12/19 06:35:31;;;;;;;42.00;21.33;;;;;;;;;;8267619;28;20029;-74
2022/12/19 06:39:31;;;;;;;38.70;20.60;;;;;;;;;;8268689;28;20021;-75
2022/12/19 06:43:31;;;;;;;40.42;22.00;;;;;;;;;;8266029;28;20287;-74
2022/12/19 06:47:31;;;;;;;36.53;20.17;;;;;;;;;;8266995;28;20080;-75
2022/12/19 06:51:32;;;;;;;35.08;18.83;;;;;;;;;;8264434;28;20149;-75
2022/12/19 06:55:34;;;;;;;38.70;19.55;;;;;;;;;;8265479;28;20483;-76
2022/12/19 06:59:34;;;;;;;35.90;19.02;;;;;;;;;;8265876;28;20022;-75
2022/12/19 07:03:37;;;;;;;41.17;20.80;;;;;;;;;;8267561;28;20510;-76
2022/12/19 07:07:37;;;;;;;37.47;20.42;;;;;;;;;;8273801;28;20318;-75
2022/12/19 07:11:37;;;;;;;45.75;22.50;;;;;;;;;;8267120;28;21070;-75
2022/12/19 07:15:38;;;;;;;37.90;20.67;;;;;;;;;;8266143;28;20281;-75
2022/12/19 07:19:39;;;;;;;36.88;19.08;;;;;;;;;;8266961;28;20049;-75
2022/12/19 07:23:39;;;;;;;39.75;19.77;;;;;;;;;;8268010;28;20022;-74
2022/12/19 07:27:39;;;;;;;35.53;18.55;;;;;;;;;;8266549;28;20087;-76
2022/12/19 07:31:40;;;;;;;34.72;18.95;;;;;;;;;;8264391;28;20079;-75
2022/12/19 07:35:40;;;;;;;35.90;20.27;;;;;;;;;;8264754;28;20030;-75
2022/12/19 07:39:40;;;;;;;31.92;17.60;;;;;;;;;;8264071;28;20033;-75
2022/12/19 07:43:40;;;;;;;30.05;17.15;;;;;;;;;;8266741;28;20104;-74
2022/12/19 07:47:41;;;;;;;35.30;18.90;;;;;;;;;;8263992;28;20045;-74
2022/12/19 07:51:41;;;;;;;32.87;18.40;;;;;;;;;;8263843;28;20307;-74
2022/12/19 07:55:41;;;;;;;34.20;18.17;;;;;;;;;;8262833;28;20291;-74
2022/12/19 07:59:41;;;;;;;37.13;19.17;;;;;;;;;;8265213;28;20018;-74
2022/12/19 08:03:42;;;;;;;33.72;18.45;;;;;;;;;;8272080;28;20066;-75
2022/12/19 08:07:42;;;;;;;33.95;17.70;;;;;;;;;;8266227;28;20021;-75
2022/12/19 08:11:42;;;;;;;37.05;20.23;;;;;;;;;;8263879;28;20036;-75
2022/12/19 08:15:43;;;;;;;38.33;21.10;;;;;;;;;;8263835;28;20882;-75
2022/12/19 08:19:43;;;;;;;39.60;20.70;;;;;;;;;;8266406;28;20030;-75
2022/12/19 08:23:44;;;;;;;40.72;21.98;;;;;;;;;;8266034;28;20025;-76
2022/12/19 08:27:45;;;;;;;37.10;20.58;;;;;;;;;;8263357;28;20128;-75
2022/12/19 08:31:45;;;;;;;54.60;25.48;;;;;;;;;;8265828;28;20065;-75
2022/12/19 08:35:45;;;;;;;56.92;23.88;;;;;;;;;;8263303;28;20666;-75
2022/12/19 08:39:46;;;;;;;76.25;30.55;;;;;;;;;;8265182;28;20029;-75
2022/12/19 08:43:50;;;;;;;47.47;23.13;;;;;;;;;;8264346;28;20033;-75
2022/12/19 08:47:50;;;;;;;;;;;;;;;;;;8264833;28;20034;-75
2022/12/19 08:51:50;;;;;;;43.33;21.05;;;;;;;;;;8263932;28;19924;-74
2022/12/19 08:55:55;;;;;;;53.47;23.92;;;;;;;;;;8262778;28;20096;-75
2022/12/19 08:59:55;;;;;;;37.08;20.98;;;;;;;;;;8263664;28;20140;-75
2022/12/19 09:03:58;;;;;;;39.63;19.80;;;;;;;;;;8264608;28;20689;-75
2022/12/19 09:07:59;;;;;;;41.97;22.85;;;;;;;;;;8264560;28;20989;-76
2022/12/19 09:12:00;;;;;;;40.58;21.77;;;;;;;;;;8273258;28;20787;-75
2022/12/19 09:16:00;;;;;;;46.65;22.50;;;;;;;;;;8266008;28;20790;-76
2022/12/19 09:20:00;;;;;;;46.13;21.63;;;;;;;;;;8272273;28;20094;-75
2022/12/19 09:24:01;;;;;;;43.20;22.55;;;;;;;;;;8266770;28;20759;-76
2022/12/19 09:28:02;;;;;;;36.67;19.73;;;;;;;;;;8276642;28;20024;-76
2022/12/19 09:32:02;;;;;;;38.90;20.13;;;;;;;;;;8270547;28;20124;-76
2022/12/19 09:36:03;;;;;;;38.08;21.08;;;;;;;;;;8267921;28;20339;-75
2022/12/19 09:40:03;;;;;;;34.17;19.38;;;;;;;;;;8266255;28;20022;-75
2022/12/19 09:44:09;;;;;;;38.60;20.63;;;;;;;;;;8284849;28;20041;-75
2022/12/19 09:48:11;;;;;;;35.28;19.17;;;;;;;;;;8269194;28;20038;-76
2022/12/19 09:52:11;;;;;;;35.92;19.45;;;;;;;;;;8276202;28;20451;-76
2022/12/19 09:56:14;;;;;;;36.33;19.45;;;;;;;;;;8268345;28;20037;-75
2022/12/19 10:00:18;;;;;;;38.40;20.88;;;;;;;;;;8269354;28;20112;-76
2022/12/19 10:04:20;;;;;;;45.30;21.33;;;;;;;;;;8268958;28;20545;-75
2022/12/19 10:08:26;;;;;;;36.17;19.50;;;;;;;;;;8268475;28;20034;-75
2022/12/19 10:12:26;;;;;;;40.15;20.40;;;;;;;;;;8266999;28;20040;-76
2022/12/19 10:16:40;;;;;;;46.22;23.70;;;;;;;;;;8266042;28;20881;-77
2022/12/19 10:20:43;;;;;;;37.47;20.10;;;;;;;;;;8269452;28;20101;-75
2022/12/19 10:24:50;;;;;;;34.38;18.98;;;;;;;;;;8267968;28;20108;-75
2022/12/19 10:28:50;;;;;;;37.28;19.35;;;;;;;;;;8267429;28;20034;-75
2022/12/19 10:33:00;;;;;;;36.38;19.33;;;;;;;;;;8269078;28;20151;-77
2022/12/19 10:37:10;;;;;;;32.03;18.80;;;;;;;;;;8267237;28;20137;-77
2022/12/19 10:41:15;;;;;;;42.50;22.85;;;;;;;;;;8267996;28;20452;-76
2022/12/19 10:45:17;;;;;;;36.90;20.00;;;;;;;;;;8268215;28;20132;-77
2022/12/19 10:49:20;;;;;;;34.80;19.25;;;;;;;;;;8269461;28;20029;-77
2022/12/19 10:53:25;;;;;;;38.42;20.83;;;;;;;;;;8268657;28;20530;-76
2022/12/19 10:57:26;;;;;;;32.45;19.33;;;;;;;;;;8267390;28;20733;-76
2022/12/19 11:01:28;;;;;;;41.08;22.58;;;;;;;;;;8266237;28;20113;-75
2022/12/19 11:06:01;;;;;;;43.10;23.45;;;;;;;;;;8265603;28;20045;-75
2022/12/19 11:10:01;;;;;;;53.25;25.30;;;;;;;;;;8233747;28;20124;-76
2022/12/19 11:14:17;;;;;;;51.37;24.77;;;;;;;;;;8268776;28;20049;-75
2022/12/19 11:18:17;;;;;;;47.33;24.17;;;;;;;;;;8267307;28;20330;-76
2022/12/19 11:22:20;;;;;;;45.83;25.67;;;;;;;;;;8268794;28;20022;-76
2022/12/19 11:26:29;;;;;;;47.75;24.60;;;;;;;;;;8267766;28;20541;-75
2022/12/19 11:30:30;;;;;;;40.33;21.75;;;;;;;;;;8266603;28;20041;-74
2022/12/19 11:34:34;;;;;;;41.08;22.27;;;;;;;;;;8265542;28;20034;-74
2022/12/19 11:38:37;;;;;;;39.67;21.40;;;;;;;;;;8269204;28;20021;-75
2022/12/19 11:42:37;;;;;;;39.20;21.42;;;;;;;;;;8267549;28;20796;-75
2022/12/19 11:46:42;;;;;;;41.65;24.02;;;;;;;;;;8265614;28;20125;-76
2022/12/19 11:50:54;;;;;;;47.08;22.50;;;;;;;;;;8268649;28;20445;-75
2022/12/19 11:55:00;;;;;;;37.08;21.05;;;;;;;;;;8267018;28;20029;-75
2022/12/19 11:59:06;;;;;;;36.13;20.35;;;;;;;;;;8267813;28;20080;-75
2022/12/19 12:03:06;;;;;;;37.28;20.00;;;;;;;;;;8262944;28;20530;-75
2022/12/19 12:07:07;;;;;;;43.65;21.98;;;;;;;;;;8264885;28;20029;-76
2022/12/19 12:11:26;;;;;;;41.92;22.23;;;;;;;;;;8265377;28;20025;-75
2022/12/19 12:15:29;;;;;;;36.25;19.70;;;;;;;;;;8264705;28;20044;-75
2022/12/19 12:19:40;;;;;;;37.42;21.50;;;;;;;;;;8263890;28;20452;-75
2022/12/19 12:23:59;;;;;;;34.63;20.20;;;;;;;;;;8265914;28;20057;-75
2022/12/19 12:28:11;;;;;;;34.05;19.73;;;;;;;;;;8262604;28;20075;-75
2022/12/19 12:32:15;;;;;;;38.40;20.95;;;;;;;;;;8264176;28;20176;-74
2022/12/19 12:36:24;;;;;;;36.47;20.85;;;;;;;;;;8264431;28;20116;-75
2022/12/19 12:40:30;;;;;;;34.00;19.92;;;;;;;;;;8264193;28;20112;-75
2022/12/19 12:44:34;;;;;;;34.95;19.45;;;;;;;;;;8265140;28;20923;-75
2022/12/19 12:48:54;;;;;;;35.60;20.98;;;;;;;;;;8261254;28;20034;-75
2022/12/19 12:52:56;;;;;;;37.33;20.92;;;;;;;;;;8272065;28;20037;-75
2022/12/19 12:56:57;;;;;;;34.97;20.42;;;;;;;;;;8269334;28;20412;-75
2022/12/19 13:01:08;;;;;;;36.63;20.73;;;;;;;;;;8270293;28;20080;-74
2022/12/19 13:05:27;;;;;;;33.80;20.30;;;;;;;;;;8275865;28;20457;-74
2022/12/19 13:09:33;;;;;;;37.33;20.60;;;;;;;;;;8271544;28;20030;-74
2022/12/19 13:13:53;;;;;;;38.30;21.63;;;;;;;;;;8278328;28;20021;-75
2022/12/19 13:17:53;;;;;;;37.28;21.20;;;;;;;;;;8269102;28;20072;-75
2022/12/19 13:21:59;;;;;;;32.67;20.70;;;;;;;;;;8270377;28;20017;-74
2022/12/19 13:26:00;;;;;;;39.20;22.40;;;;;;;;;;8268496;28;20694;-75
2022/12/19 13:30:02;;;;;;;45.38;24.33;;;;;;;;;;8269790;28;20536;-75
2022/12/19 13:34:09;;;;;;;54.03;27.30;;;;;;;;;;8270814;28;20049;-75
2022/12/19 13:38:24;;;;;;;39.45;23.42;;;;;;;;;;8271939;28;20024;-74
2022/12/19 13:46:45;;;;;;;51.83;25.58;;;;;;;;;;8268751;28;20153;-75
2022/12/19 13:50:46;;;;;;;48.13;25.63;;;;;;;;;;8269370;28;20917;-75
2022/12/19 13:54:48;;;;;;;45.67;24.88;;;;;;;;;;8267075;28;20033;-75
2022/12/19 13:58:59;;;;;;;45.55;24.83;;;;;;;;;;8269686;28;20036;-75
2022/12/19 14:03:00;;;;;;;37.97;21.25;;;;;;;;;;8266449;28;20578;-74
2022/12/19 14:07:23;;;;;;;33.80;20.33;;;;;;;;;;8270154;28;20026;-75
2022/12/19 14:11:23;;;;;;;35.88;21.00;;;;;;;;;;8269807;28;20021;-75
2022/12/19 14:15:26;;;;;;;46.60;21.42;;;;;;;;;;8266979;28;20041;-75
2022/12/19 14:19:29;;;;;;;35.80;20.13;;;;;;;;;;8268670;28;20025;-75
2022/12/19 14:23:29;;;;;;;35.38;20.27;;;;;;;;;;8267796;28;20057;-76
2022/12/19 14:27:53;;;;;;;35.80;19.45;;;;;;;;;;8267938;28;20068;-75
2022/12/19 14:31:53;;;;;;;33.15;19.73;;;;;;;;;;8262708;28;20025;-74
2022/12/19 14:35:54;;;;;;;32.00;18.25;;;;;;;;;;8266472;28;20036;-74
2022/12/19 14:40:05;;;;;;;31.67;18.88;;;;;;;;;;8265592;28;20043;-73
2022/12/19 14:44:05;;;;;;;37.30;20.83;;;;;;;;;;8272015;28;20041;-75
2022/12/19 14:48:24;;;;;;;35.33;20.27;;;;;;;;;;8262788;28;20038;-76
2022/12/19 14:52:41;;;;;;;32.33;19.70;;;;;;;;;;8267398;28;20026;-75
2022/12/19 14:56:42;;;;;;;34.88;20.00;;;;;;;;;;8265030;28;20029;-75
2022/12/19 15:00:44;;;;;;;33.88;19.38;;;;;;;;;;8267721;28;20038;-76
2022/12/19 15:04:46;;;;;;;31.88;19.33;;;;;;;;;;8271777;28;20793;-75
2022/12/19 15:08:48;;;;;;;38.05;22.50;;;;;;;;;;8275729;28;20031;-73
2022/12/19 15:17:20;;;;;;;34.13;19.33;;;;;;;;;;8267046;28;20158;-75
2022/12/19 15:21:20;;;;;;;29.55;18.05;;;;;;;;;;8266792;28;20026;-76
2022/12/19 15:25:20;;;;;;;32.70;19.17;;;;;;;;;;8265493;28;20069;-75
2022/12/19 15:29:20;;;;;;;32.90;19.02;;;;;;;;;;8265499;28;20264;-75
2022/12/19 15:33:21;;;;;;;30.23;18.52;;;;;;;;;;8266462;28;20042;-74
2022/12/19 15:37:21;;;;;;;33.88;19.15;;;;;;;;;;8267086;28;20075;-74
2022/12/19 15:41:22;;;;;;;38.15;19.45;;;;;;;;;;8265236;28;21049;-75
2022/12/19 15:45:23;;;;;;;32.90;20.33;;;;;;;;;;8264982;28;20100;-75
2022/12/19 15:49:23;;;;;;;32.58;18.63;;;;;;;;;;8265716;28;20029;-76
2022/12/19 15:53:28;;;;;;;36.22;21.88;;;;;;;;;;8264830;28;20025;-76
2022/12/19 15:57:39;;;;;;;36.58;20.17;;;;;;;;;;8265864;28;20088;-75
2022/12/19 16:01:39;;;;;;;39.80;22.25;;;;;;;;;;8264661;28;20042;-75
2022/12/19 16:05:40;;;;;;;40.10;23.27;;;;;;;;;;8261424;28;20912;-75
2022/12/19 16:09:40;;;;;;;39.50;22.80;;;;;;;;;;8264157;28;20025;-74
2022/12/19 16:13:43;;;;;;;37.72;22.23;;;;;;;;;;8263634;28;20034;-75
2022/12/19 16:17:43;;;;;;;35.22;20.55;;;;;;;;;;8269843;28;20065;-75
2022/12/19 16:21:43;;;;;;;43.58;22.45;;;;;;;;;;8265160;28;20022;-74
2022/12/19 16:25:45;;;;;;;33.58;19.70;;;;;;;;;;8281192;28;20026;-74
2022/12/19 16:29:45;;;;;;;42.33;23.05;;;;;;;;;;8281091;28;20106;-75
2022/12/19 16:33:45;;;;;;;43.33;23.67;;;;;;;;;;8270704;28;20928;-75
2022/12/19 16:37:45;;;;;;;35.55;20.67;;;;;;;;;;8266315;28;20638;-75
2022/12/19 16:41:46;;;;;;;36.90;20.33;;;;;;;;;;8270207;28;20105;-75
2022/12/19 16:45:46;;;;;;;37.45;21.60;;;;;;;;;;8268497;28;20322;-74
2022/12/19 16:49:46;;;;;;;33.33;17.70;;;;;;;;;;8273269;28;20180;-74
2022/12/19 16:53:47;;;;;;;31.27;18.00;;;;;;;;;;8270787;28;20030;-74
2022/12/19 16:57:49;;;;;;;17.70;10.45;;;;;;;;;;8269181;28;20026;-73
2022/12/19 17:01:50;;;;;;;22.25;13.48;;;;;;;;;;8269892;28;20061;-74
2022/12/19 17:05:50;;;;;;;19.60;11.52;;;;;;;;;;8272493;28;20029;-74
2022/12/19 17:09:50;;;;;;;14.82;9.30;;;;;;;;;;8270268;28;20025;-75
2022/12/19 17:13:56;;;;;;;13.00;7.93;;;;;;;;;;8271355;28;20541;-74
2022/12/19 17:17:58;;;;;;;12.93;8.32;;;;;;;;;;8269330;28;20987;-74
2022/12/19 17:21:58;;;;;;;13.38;8.70;;;;;;;;;;8271098;28;20022;-74
2022/12/19 17:25:59;;;;;;;13.68;8.52;;;;;;;;;;8271231;28;20391;-74
2022/12/19 17:29:59;;;;;;;14.73;8.45;;;;;;;;;;8270257;28;20087;-73
2022/12/19 17:34:00;;;;;;;14.57;8.77;;;;;;;;;;8269926;28;20041;-73
2022/12/19 17:38:00;;;;;;;13.13;8.27;;;;;;;;;;8268987;28;20371;-73
2022/12/19 17:42:05;;;;;;;11.38;7.90;;;;;;;;;;8270210;28;20035;-73
2022/12/19 17:46:11;;;;;;;13.85;8.88;;;;;;;;;;8266567;28;20038;-75
2022/12/19 17:50:26;;;;;;;16.30;9.85;;;;;;;;;;8269979;28;20053;-74
2022/12/19 17:54:26;;;;;;;;;;;;;;;;;;8268831;28;20025;-74
2022/12/19 17:58:28;;;;;;;14.02;9.45;;;;;;;;;;8281303;28;20565;-74
2022/12/19 18:02:28;;;;;;;12.23;8.32;;;;;;;;;;8266462;28;20041;-75
2022/12/19 18:06:29;;;;;;;12.65;8.35;;;;;;;;;;8267596;28;20147;-74
2022/12/19 18:10:30;;;;;;;16.15;10.20;;;;;;;;;;8268710;28;20810;-74
2022/12/19 18:14:30;;;;;;;28.58;17.75;;;;;;;;;;8264871;28;20244;-74
2022/12/19 18:18:33;;;;;;;36.55;21.10;;;;;;;;;;8281626;28;20096;-74
2022/12/19 18:22:33;;;;;;;32.55;18.60;;;;;;;;;;8267716;28;20021;-75
2022/12/19 18:26:33;;;;;;;19.95;11.98;;;;;;;;;;8266220;28;20033;-73
2022/12/19 18:30:34;;;;;;;15.57;9.30;;;;;;;;;;8267751;28;20037;-75
2022/12/19 18:34:35;;;;;;;16.20;9.80;;;;;;;;;;8266463;28;20865;-75
2022/12/19 18:38:35;;;;;;;12.68;8.00;;;;;;;;;;8266319;28;20029;-75
2022/12/19 18:42:35;;;;;;;30.47;18.33;;;;;;;;;;8267434;28;20038;-75
2022/12/19 18:46:37;;;;;;;14.90;8.60;;;;;;;;;;8264821;28;20382;-75
2022/12/19 18:50:37;;;;;;;10.52;7.40;;;;;;;;;;8267081;28;20611;-75
2022/12/19 18:54:37;;;;;;;13.57;8.40;;;;;;;;;;8278663;28;20022;-76
2022/12/19 18:58:38;;;;;;;13.48;7.18;;;;;;;;;;8267169;28;21388;-76
2022/12/19 19:02:40;;;;;;;10.73;6.80;;;;;;;;;;8266938;28;20033;-77
2022/12/19 19:06:40;;;;;;;10.10;6.32;;;;;;;;;;8267248;28;20265;-76
2022/12/19 19:10:41;;;;;;;10.02;6.70;;;;;;;;;;8267957;28;20034;-76
2022/12/19 19:14:41;;;;;;;11.63;7.60;;;;;;;;;;8267148;28;20465;-77
2022/12/19 19:18:41;;;;;;;12.32;6.50;;;;;;;;;;8265366;28;20304;-78
2022/12/19 19:22:42;;;;;;;10.45;6.88;;;;;;;;;;8265280;28;20037;-77
2022/12/19 19:26:42;;;;;;;11.57;7.45;;;;;;;;;;8265343;28;20018;-76
2022/12/19 19:30:43;;;;;;;12.65;8.88;;;;;;;;;;8264461;28;20044;-77
2022/12/19 19:34:43;;;;;;;11.15;7.85;;;;;;;;;;8261971;28;20026;-77
2022/12/19 19:38:45;;;;;;;13.05;7.82;;;;;;;;;;8265779;28;20029;-76
2022/12/19 19:42:45;;;;;;;14.77;8.90;;;;;;;;;;8268611;28;20032;-76
2022/12/19 19:46:45;;;;;;;13.45;8.75;;;;;;;;;;8265544;28;20042;-75
2022/12/19 19:50:46;;;;;;;12.80;7.60;;;;;;;;;;8262004;28;20046;-75
2022/12/19 19:54:47;;;;;;;9.88;7.28;;;;;;;;;;8265434;28;20323;-75
2022/12/19 19:58:47;;;;;;;11.20;6.97;;;;;;;;;;8278969;28;20063;-76
2022/12/19 20:02:47;;;;;;;10.57;7.20;;;;;;;;;;8281061;28;20041;-75
2022/12/19 20:06:48;;;;;;;9.70;6.53;;;;;;;;;;8264712;28;20060;-76
2022/12/19 20:10:58;;;;;;;9.18;5.90;;;;;;;;;;8259565;28;20030;-76
2022/12/19 20:14:59;;;;;;;7.82;4.75;;;;;;;;;;8262624;28;20601;-76
2022/12/19 20:18:59;;;;;;;6.55;3.72;;;;;;;;;;8265401;28;20094;-76
2022/12/19 20:23:01;;;;;;;7.03;5.30;;;;;;;;;;8264031;28;20018;-76
2022/12/19 20:27:01;;;;;;;7.88;5.15;;;;;;;;;;8265393;28;20285;-76
2022/12/19 20:31:01;;;;;;;5.55;3.92;;;;;;;;;;8265247;28;21094;-76
2022/12/19 20:35:01;;;;;;;8.55;5.55;;;;;;;;;;8262368;28;20036;-75
2022/12/19 20:39:02;;;;;;;9.73;5.88;;;;;;;;;;8257043;28;20202;-76
2022/12/19 20:43:02;;;;;;;9.23;6.40;;;;;;;;;;8254531;28;20042;-76
2022/12/19 20:47:02;;;;;;;6.43;4.80;;;;;;;;;;8251866;28;20037;-76
2022/12/19 20:51:03;;;;;;;6.63;3.72;;;;;;;;;;8248342;28;20032;-76
2022/12/19 20:55:04;;;;;;;3.90;2.85;;;;;;;;;;8246960;28;20040;-75
2022/12/19 20:59:04;;;;;;;7.15;4.03;;;;;;;;;;8250611;28;20954;-76
2022/12/19 21:03:04;;;;;;;5.10;3.60;;;;;;;;;;8250001;28;20034;-76
2022/12/19 21:07:04;;;;;;;5.43;3.10;;;;;;;;;;8252502;28;20605;-76
2022/12/19 21:11:06;;;;;;;3.42;2.17;;;;;;;;;;8256302;28;21680;-76
2022/12/19 21:15:06;;;;;;;3.30;2.33;;;;;;;;;;8257080;28;20086;-76
2022/12/19 21:19:06;;;;;;;4.00;1.95;;;;;;;;;;8271710;28;20072;-76
2022/12/19 21:23:07;;;;;;;3.17;2.00;;;;;;;;;;8275174;28;20477;-76
2022/12/19 21:27:07;;;;;;;3.15;1.92;;;;;;;;;;8267113;28;20040;-76
2022/12/19 21:31:21;;;;;;;2.75;1.80;;;;;;;;;;8269263;28;20041;-76
2022/12/19 21:35:21;;;;;;;3.53;2.03;;;;;;;;;;8268473;28;20793;-76
2022/12/19 21:39:24;;;;;;;3.90;2.13;;;;;;;;;;8270640;28;20034;-76
2022/12/19 21:43:24;;;;;;;2.88;1.80;;;;;;;;;;8267181;28;20034;-76
2022/12/19 21:47:24;;;;;;;5.13;2.00;;;;;;;;;;8266051;28;20773;-76
2022/12/19 21:51:29;;;;;;;4.05;2.30;;;;;;;;;;8269795;28;20029;-76
2022/12/19 21:55:30;;;;;;;4.63;2.22;;;;;;;;;;8268167;28;21376;-76
2022/12/19 21:59:30;;;;;;;5.93;2.20;;;;;;;;;;8271859;28;20029;-76
2022/12/19 22:03:30;;;;;;;3.10;2.03;;;;;;;;;;8270153;28;20787;-76
2022/12/19 22:07:31;;;;;;;5.75;3.65;;;;;;;;;;8265963;28;20628;-76
2022/12/19 22:11:31;;;;;;;4.32;3.42;;;;;;;;;;8267351;28;20124;-76
2022/12/19 22:15:33;;;;;;;14.32;4.20;;;;;;;;;;8266095;28;20034;-76
2022/12/19 22:19:34;;;;;;;6.07;4.32;;;;;;;;;;8265258;28;20305;-76
2022/12/19 22:23:34;;;;;;;6.75;3.67;;;;;;;;;;8266503;28;20041;-76
2022/12/19 22:27:34;;;;;;;5.72;4.20;;;;;;;;;;8264631;28;20030;-76
2022/12/19 22:31:35;;;;;;;6.05;3.30;;;;;;;;;;8271608;28;20033;-76
2022/12/19 22:35:35;;;;;;;4.75;2.72;;;;;;;;;;8264758;28;20040;-76
2022/12/19 22:39:35;;;;;;;4.32;2.92;;;;;;;;;;8264345;28;20095;-76
2022/12/19 22:43:36;;;;;;;3.10;2.63;;;;;;;;;;8271474;28;20044;-76
2022/12/19 22:47:39;;;;;;;2.97;2.67;;;;;;;;;;8268095;28;20038;-77
2022/12/19 22:51:39;;;;;;;5.50;2.63;;;;;;;;;;8266350;28;20856;-76
2022/12/19 22:55:40;;;;;;;5.30;2.85;;;;;;;;;;8265453;28;21062;-76
2022/12/19 22:59:41;;;;;;;5.78;2.90;;;;;;;;;;8264485;28;20026;-76
2022/12/19 23:03:42;;;;;;;6.55;3.13;;;;;;;;;;8265618;28;20029;-75
2022/12/19 23:07:42;;;;;;;3.15;2.58;;;;;;;;;;8265731;28;20119;-75
2022/12/19 23:11:43;;;;;;;6.38;2.97;;;;;;;;;;8268167;28;20072;-76
2022/12/19 23:15:44;;;;;;;4.57;2.85;;;;;;;;;;8271920;28;20069;-76
2022/12/19 23:19:44;;;;;;;6.05;3.00;;;;;;;;;;8267482;28;20034;-75
2022/12/19 23:23:45;;;;;;;3.95;2.60;;;;;;;;;;8267451;28;20120;-75
2022/12/19 23:27:46;;;;;;;3.33;2.35;;;;;;;;;;8266041;28;20033;-76
2022/12/19 23:31:46;;;;;;;2.67;2.38;;;;;;;;;;8265516;28;20048;-75
2022/12/19 23:35:46;;;;;;;4.03;2.65;;;;;;;;;;8264945;28;20085;-76
2022/12/19 23:39:46;;;;;;;3.43;2.53;;;;;;;;;;8260235;28;20022;-76
2022/12/19 23:43:47;;;;;;;4.05;2.55;;;;;;;;;;8257731;28;20026;-75
2022/12/19 23:47:47;;;;;;;4.82;2.83;;;;;;;;;;8260590;28;20069;-76
2022/12/19 23:51:47;;;;;;;5.97;2.38;;;;;;;;;;8259432;28;20049;-75
2022/12/19 23:55:48;;;;;;;3.88;2.67;;;;;;;;;;8259757;28;20039;-76
2022/12/19 23:59:48;;;;;;;4.20;2.70;;;;;;;;;;8261526;28;20073;-75
